Time;durP1;ratioP1;P1;durP2;ratioP2;P2;SDS_P1;SDS_P2;PMS_P1;PMS_P2;Temp;Humidity;BMP_temperature;BMP_pressure;BME280_temperature;BME280_humidity;BME280_pressure;Samples;Min_cycle;Max_cycle;Signal;HPM_P1;HPM_P2
2023/06/12 00:01:25;;;;;;;1.92;1.10;;;16.70;95.60;;;;;;4862964;29;20052;-75
2023/06/12 00:03:55;;;;;;;3.00;1.35;;;16.80;96.00;;;;;;4853644;29;20041;-75
2023/06/12 00:06:23;;;;;;;2.67;1.20;;;16.80;96.30;;;;;;4850471;29;20540;-75
2023/06/12 00:08:50;;;;;;;2.10;1.40;;;16.50;96.30;;;;;;4867244;29;20055;-75
2023/06/12 00:11:17;;;;;;;5.97;1.70;;;16.50;96.40;;;;;;4847059;29;20044;-75
2023/06/12 00:13:47;;;;;;;2.75;1.33;;;16.70;97.00;;;;;;4867139;29;20059;-75
2023/06/12 00:16:15;;;;;;;2.85;1.80;;;16.60;96.30;;;;;;4855413;29;20060;-75
2023/06/12 00:18:43;;;;;;;2.90;1.38;;;16.60;96.70;;;;;;4847591;29;20585;-75
2023/06/12 00:21:11;;;;;;;2.78;1.35;;;16.60;96.20;;;;;;4854670;29;20052;-75
2023/06/12 00:23:40;;;;;;;2.88;1.13;;;16.40;96.40;;;;;;4865159;29;20124;-75
2023/06/12 00:26:08;;;;;;;2.67;1.48;;;16.30;97.00;;;;;;4852062;29;20055;-75
2023/06/12 00:28:38;;;;;;;3.00;1.55;;;16.20;96.80;;;;;;4852207;29;20052;-75
2023/06/12 00:31:06;;;;;;;2.17;1.50;;;16.30;97.10;;;;;;4870953;29;20519;-75
2023/06/12 00:33:33;;;;;;;2.85;1.45;;;16.00;97.20;;;;;;4854621;29;20068;-75
2023/06/12 00:36:00;;;;;;;3.28;1.70;;;16.10;97.50;;;;;;4850762;29;20139;-75
2023/06/12 00:38:27;;;;;;;2.60;1.45;;;16.10;97.40;;;;;;4852842;29;20172;-75
2023/06/12 00:40:56;;;;;;;3.58;1.52;;;16.10;97.20;;;;;;4858548;29;20044;-75
2023/06/12 00:43:23;;;;;;;3.22;1.35;;;16.10;97.70;;;;;;4852071;29;20054;-75
2023/06/12 00:45:50;;;;;;;2.88;1.60;;;16.00;97.90;;;;;;4851224;29;20056;-75
2023/06/12 00:48:18;;;;;;;2.58;1.27;;;16.10;97.50;;;;;;4849477;29;20052;-75
2023/06/12 00:50:46;;;;;;;5.70;1.38;;;16.10;97.60;;;;;;4834674;29;20072;-75
2023/06/12 00:53:13;;;;;;;8.43;1.98;;;16.20;97.60;;;;;;4847965;29;20527;-75
2023/06/12 00:55:40;;;;;;;3.28;1.83;;;16.30;97.30;;;;;;4861541;29;20107;-75
2023/06/12 00:58:07;;;;;;;3.70;2.40;;;16.10;97.50;;;;;;4847793;29;20611;-75
2023/06/12 01:00:38;;;;;;;4.35;2.75;;;16.10;97.50;;;;;;4859955;29;20058;-75
2023/06/12 01:03:09;;;;;;;4.25;2.28;;;16.00;97.30;;;;;;4849320;29;20060;-75
2023/06/12 01:05:40;;;;;;;4.77;2.63;;;16.10;97.80;;;;;;4850411;29;20769;-75
2023/06/12 01:08:26;;;;;;;7.35;3.08;;;16.00;97.10;;;;;;4845091;29;20823;-75
2023/06/12 01:11:05;;;;;;;4.53;2.90;;;16.00;97.80;;;;;;4863720;29;20139;-75
2023/06/12 01:13:33;;;;;;;4.70;3.00;;;15.80;97.90;;;;;;4870406;29;20081;-75
2023/06/12 01:16:00;;;;;;;7.18;3.38;;;15.90;98.10;;;;;;4850400;29;20072;-75
2023/06/12 01:18:29;;;;;;;4.82;2.65;;;16.00;97.40;;;;;;4834470;29;20518;-75
2023/06/12 01:20:58;;;;;;;7.00;3.38;;;15.90;97.30;;;;;;4857423;29;20575;-75
2023/06/12 01:23:49;;;;;;;5.65;2.78;;;15.80;97.60;;;;;;4835574;29;20100;-75
2023/06/12 01:26:38;;;;;;;6.45;2.88;;;15.70;97.70;;;;;;4886884;29;20075;-75
2023/06/12 01:29:24;;;;;;;5.88;3.20;;;15.80;98.40;;;;;;4864618;29;20103;-75
2023/06/12 01:32:04;;;;;;;10.05;2.95;;;15.90;98.00;;;;;;4864195;29;20076;-76
2023/06/12 01:34:51;;;;;;;6.95;3.05;;;15.50;97.90;;;;;;4870222;29;20280;-75
2023/06/12 01:37:37;;;;;;;6.20;2.47;;;15.50;98.50;;;;;;4841079;29;20052;-75
2023/06/12 01:40:08;;;;;;;6.05;2.88;;;15.70;98.60;;;;;;4862781;29;20052;-75
2023/06/12 01:42:37;;;;;;;6.70;2.28;;;15.60;98.00;;;;;;4869700;29;20072;-75
2023/06/12 01:45:06;;;;;;;7.50;2.13;;;15.60;98.50;;;;;;4852147;29;20052;-75
2023/06/12 01:47:33;;;;;;;4.63;2.35;;;15.50;98.10;;;;;;4847884;29;20067;-75
2023/06/12 01:50:02;;;;;;;4.05;2.55;;;15.50;98.10;;;;;;4840782;29;20072;-75
2023/06/12 01:52:30;;;;;;;4.47;2.30;;;15.60;98.20;;;;;;4834932;29;20059;-76
2023/06/12 01:54:58;;;;;;;6.63;2.03;;;15.60;98.20;;;;;;4845109;29;20064;-75
2023/06/12 01:57:25;;;;;;;4.07;2.22;;;15.50;98.20;;;;;;4864007;29;20044;-75
2023/06/12 01:59:53;;;;;;;4.60;1.98;;;15.40;98.20;;;;;;4851027;29;20056;-75
2023/06/12 02:02:22;;;;;;;3.05;1.90;;;15.40;98.40;;;;;;4858381;29;20063;-75
2023/06/12 02:04:49;;;;;;;3.20;1.45;;;15.40;98.50;;;;;;4853695;29;20071;-75
2023/06/12 02:07:16;;;;;;;2.83;1.92;;;15.50;98.10;;;;;;4847196;29;20171;-75
2023/06/12 02:09:43;;;;;;;4.18;2.10;;;15.30;98.20;;;;;;4848396;29;20040;-75
2023/06/12 02:12:11;;;;;;;3.33;1.67;;;15.50;98.60;;;;;;4850690;29;20056;-75
2023/06/12 02:14:41;;;;;;;4.20;1.48;;;15.50;98.30;;;;;;4855597;29;20824;-75
2023/06/12 02:17:08;;;;;;;3.47;1.42;;;15.60;98.70;;;;;;4845677;29;20142;-75
2023/06/12 02:19:36;;;;;;;2.45;1.35;;;15.60;97.80;;;;;;4841993;29;20070;-75
2023/06/12 02:22:03;;;;;;;4.82;1.70;;;15.40;97.90;;;;;;4841331;29;20709;-75
2023/06/12 02:24:32;;;;;;;7.07;2.35;;;15.50;98.40;;;;;;4849914;29;20737;-75
2023/06/12 02:27:02;;;;;;;3.10;1.52;;;15.50;98.30;;;;;;4853314;29;20768;-75
2023/06/12 02:29:29;;;;;;;2.75;1.40;;;15.50;98.10;;;;;;4852325;29;20507;-75
2023/06/12 02:31:58;;;;;;;3.03;1.88;;;15.50;98.00;;;;;;4861342;29;20419;-75
2023/06/12 02:34:26;;;;;;;2.25;1.30;;;15.30;97.80;;;;;;4849566;29;20484;-75
2023/06/12 02:36:53;;;;;;;3.40;1.70;;;15.30;98.20;;;;;;4858423;29;20064;-75
2023/06/12 02:39:26;;;;;;;4.57;1.40;;;15.20;98.10;;;;;;4852646;29;20504;-75
2023/06/12 02:41:53;;;;;;;2.65;1.70;;;15.10;98.30;;;;;;4846141;29;20052;-75
2023/06/12 02:44:21;;;;;;;3.65;1.67;;;15.20;98.80;;;;;;4861934;29;20082;-75
2023/06/12 02:46:53;;;;;;;3.35;1.98;;;15.30;98.70;;;;;;4865472;29;20056;-75
2023/06/12 02:49:26;;;;;;;2.70;1.70;;;15.30;98.60;;;;;;4854828;29;20056;-75
2023/06/12 02:51:53;;;;;;;3.70;1.77;;;15.20;98.30;;;;;;4844635;29;20055;-75
2023/06/12 02:54:22;;;;;;;4.68;1.88;;;15.10;98.40;;;;;;4846283;29;22668;-75
2023/06/12 02:56:50;;;;;;;3.33;1.52;;;15.00;98.80;;;;;;4848673;29;20052;-75
2023/06/12 02:59:19;;;;;;;4.93;2.45;;;15.00;98.90;;;;;;4849507;29;20144;-75
2023/06/12 03:01:47;;;;;;;3.33;1.45;;;15.20;99.10;;;;;;4846185;29;20052;-75
2023/06/12 03:04:23;;;;;;;2.72;1.42;;;15.20;98.50;;;;;;4866838;29;20051;-75
2023/06/12 03:06:53;;;;;;;3.05;2.00;;;15.10;98.80;;;;;;4870947;29;20057;-75
2023/06/12 03:09:22;;;;;;;2.63;1.38;;;15.10;99.00;;;;;;4849110;29;20056;-75
2023/06/12 03:11:53;;;;;;;3.08;1.33;;;15.00;98.70;;;;;;4849748;29;20063;-75
2023/06/12 03:14:21;;;;;;;3.10;1.10;;;15.10;99.30;;;;;;4834951;29;20056;-75
2023/06/12 03:16:48;;;;;;;6.95;1.63;;;15.10;98.80;;;;;;4862057;29;20791;-75
2023/06/12 03:19:16;;;;;;;2.97;1.50;;;15.10;98.50;;;;;;4862293;29;20149;-75
2023/06/12 03:21:44;;;;;;;3.58;1.63;;;15.00;98.70;;;;;;4835094;29;20567;-75
2023/06/12 03:24:11;;;;;;;2.97;1.58;;;15.00;99.00;;;;;;4856340;29;20056;-75
2023/06/12 03:26:40;;;;;;;3.08;1.50;;;15.00;99.40;;;;;;4855987;29;20060;-75
2023/06/12 03:29:08;;;;;;;3.00;1.80;;;15.00;99.00;;;;;;4859372;29;20070;-75
2023/06/12 03:31:35;;;;;;;3.17;1.55;;;15.00;99.00;;;;;;4833444;29;20175;-75
2023/06/12 03:34:02;;;;;;;2.47;1.27;;;15.00;99.00;;;;;;4836254;29;20751;-76
2023/06/12 03:36:33;;;;;;;3.83;1.48;;;15.10;99.20;;;;;;4847338;29;21492;-75
2023/06/12 03:39:02;;;;;;;3.17;1.83;;;15.20;98.80;;;;;;4854403;29;20173;-75
2023/06/12 03:41:32;;;;;;;2.90;1.38;;;15.20;98.30;;;;;;4865280;29;20056;-75
2023/06/12 03:44:01;;;;;;;2.50;1.50;;;15.40;98.20;;;;;;4843879;29;20060;-75
2023/06/12 03:46:32;;;;;;;4.55;1.70;;;15.30;98.20;;;;;;4834074;29;20048;-75
2023/06/12 03:49:00;;;;;;;7.07;1.73;;;15.20;97.90;;;;;;4860991;29;20108;-75
2023/06/12 03:51:28;;;;;;;3.95;2.10;;;15.10;97.70;;;;;;4869361;29;20527;-75
2023/06/12 03:53:57;;;;;;;3.10;1.83;;;15.30;97.90;;;;;;4844528;29;20081;-76
2023/06/12 03:56:25;;;;;;;4.90;1.65;;;15.20;97.90;;;;;;4860136;29;20103;-75
2023/06/12 03:58:52;;;;;;;2.95;1.75;;;15.30;98.00;;;;;;4863428;29;20151;-75
2023/06/12 04:01:19;;;;;;;2.42;1.55;;;15.30;97.50;;;;;;4863764;29;20545;-75
2023/06/12 04:03:48;;;;;;;2.83;1.45;;;15.40;97.50;;;;;;4864382;29;20048;-74
2023/06/12 04:06:15;;;;;;;3.42;1.45;;;15.40;97.40;;;;;;4848290;29;20858;-75
2023/06/12 04:08:44;;;;;;;3.40;1.27;;;15.50;96.90;;;;;;4868715;29;20049;-75
2023/06/12 04:11:14;;;;;;;2.35;1.33;;;15.70;97.30;;;;;;4852925;29;20119;-75
2023/06/12 04:13:41;;;;;;;2.25;1.33;;;15.70;96.70;;;;;;4878474;29;20086;-75
2023/06/12 04:16:10;;;;;;;2.45;1.35;;;15.70;96.60;;;;;;4855189;29;20056;-75
2023/06/12 04:18:38;;;;;;;2.53;1.17;;;15.80;96.20;;;;;;4854059;29;20055;-75
2023/06/12 04:21:06;;;;;;;2.63;1.33;;;16.00;96.20;;;;;;4865364;29;20048;-75
2023/06/12 04:23:37;;;;;;;2.72;1.48;;;16.00;95.90;;;;;;4848480;29;20663;-75
2023/06/12 04:26:04;;;;;;;2.22;1.45;;;16.10;95.10;;;;;;4860928;29;20280;-75
2023/06/12 04:28:36;;;;;;;3.72;1.35;;;16.00;94.70;;;;;;4849036;29;20760;-76
2023/06/12 04:31:04;;;;;;;2.08;1.17;;;16.10;94.80;;;;;;4862323;29;21014;-75
2023/06/12 04:33:32;;;;;;;2.88;1.27;;;16.10;94.80;;;;;;4861437;29;20060;-75
2023/06/12 04:36:03;;;;;;;2.58;1.50;;;16.10;94.60;;;;;;4854958;29;20056;-75
2023/06/12 04:38:30;;;;;;;4.05;1.60;;;16.20;94.30;;;;;;4850066;29;20595;-75
2023/06/12 04:40:58;;;;;;;6.13;1.60;;;16.30;94.70;;;;;;4841607;29;20051;-75
2023/06/12 04:43:26;;;;;;;2.60;1.40;;;16.40;93.90;;;;;;4866339;29;20060;-75
2023/06/12 04:45:53;;;;;;;3.05;1.63;;;16.50;94.30;;;;;;4837663;29;20051;-75
2023/06/12 04:48:24;;;;;;;2.20;1.42;;;16.60;93.60;;;;;;4864476;29;20451;-75
2023/06/12 04:50:54;;;;;;;3.70;1.45;;;16.70;93.50;;;;;;4869569;29;20856;-75
2023/06/12 04:53:29;;;;;;;3.63;1.35;;;16.50;92.70;;;;;;4867905;29;20575;-75
2023/06/12 04:55:58;;;;;;;2.70;1.15;;;16.60;92.70;;;;;;4863016;29;20044;-75
2023/06/12 04:58:26;;;;;;;2.28;1.45;;;16.70;92.60;;;;;;4857924;29;20047;-75
2023/06/12 05:00:55;;;;;;;2.42;1.17;;;16.80;92.00;;;;;;4879308;29;20119;-75
2023/06/12 05:03:23;;;;;;;2.45;1.13;;;16.90;92.10;;;;;;4857274;29;20052;-75
2023/06/12 05:05:55;;;;;;;2.38;1.38;;;16.90;91.30;;;;;;4851241;29;20171;-76
2023/06/12 05:08:23;;;;;;;2.28;1.20;;;17.00;91.50;;;;;;4863302;29;20060;-76
2023/06/12 05:10:51;;;;;;;2.13;1.05;;;17.10;90.70;;;;;;4863986;29;20071;-76
2023/06/12 05:13:19;;;;;;;3.25;1.10;;;17.10;90.50;;;;;;4855346;29;20064;-75
2023/06/12 05:15:46;;;;;;;2.67;1.20;;;17.30;90.70;;;;;;4849733;29;20056;-76
2023/06/12 05:18:14;;;;;;;1.77;0.90;;;17.60;90.70;;;;;;4852822;29;20052;-76
2023/06/12 05:20:41;;;;;;;2.83;1.20;;;17.70;89.50;;;;;;4865971;29;20055;-75
2023/06/12 05:23:08;;;;;;;3.50;1.13;;;17.80;89.30;;;;;;4864723;29;20138;-76
2023/06/12 05:25:36;;;;;;;2.25;1.15;;;17.70;87.40;;;;;;4846185;29;20532;-76
2023/06/12 05:28:03;;;;;;;2.35;1.90;;;17.90;86.90;;;;;;4855533;29;20052;-75
2023/06/12 05:30:32;;;;;;;2.28;1.30;;;18.10;87.20;;;;;;4851225;29;22354;-74
2023/06/12 05:33:02;;;;;;;2.08;0.98;;;18.10;85.70;;;;;;4861439;29;20044;-76
2023/06/12 05:35:31;;;;;;;3.17;0.90;;;18.10;84.70;;;;;;4846455;29;20052;-75
2023/06/12 05:37:59;;;;;;;1.60;0.70;;;18.30;84.20;;;;;;4841486;29;20520;-75
2023/06/12 05:40:27;;;;;;;2.47;0.95;;;18.20;84.60;;;;;;4851014;29;20373;-77
2023/06/12 05:42:59;;;;;;;6.80;1.00;;;18.30;84.30;;;;;;4849425;29;20874;-76
2023/06/12 05:45:28;;;;;;;2.90;0.95;;;18.20;83.30;;;;;;4830720;29;20053;-76
2023/06/12 05:47:55;;;;;;;2.10;0.80;;;18.40;83.70;;;;;;4855537;29;20172;-76
2023/06/12 05:50:22;;;;;;;1.42;0.70;;;18.70;83.60;;;;;;4848299;29;20925;-75
2023/06/12 05:52:50;;;;;;;1.73;0.73;;;18.80;81.20;;;;;;4851240;29;20051;-77
2023/06/12 05:55:17;;;;;;;1.80;0.77;;;18.80;79.90;;;;;;4862831;29;20516;-75
2023/06/12 05:57:44;;;;;;;2.55;1.10;;;18.80;78.40;;;;;;4846648;29;20425;-75
2023/06/12 06:00:13;;;;;;;1.90;0.70;;;18.80;79.70;;;;;;4844297;29;21265;-75
2023/06/12 06:02:42;;;;;;;2.42;0.80;;;19.10;79.10;;;;;;4862178;29;20512;-76
2023/06/12 06:05:18;;;;;;;1.88;0.80;;;19.20;77.40;;;;;;4859787;29;20291;-75
2023/06/12 06:07:50;;;;;;;3.50;0.70;;;19.20;77.20;;;;;;4879574;29;20052;-75
2023/06/12 06:10:17;;;;;;;1.48;0.60;;;19.20;76.70;;;;;;4866704;29;20052;-76
2023/06/12 06:12:45;;;;;;;2.65;0.70;;;19.20;77.10;;;;;;4859938;29;20069;-75
2023/06/12 06:15:13;;;;;;;2.42;0.60;;;19.30;76.30;;;;;;4852645;29;20551;-75
2023/06/12 06:17:41;;;;;;;1.35;0.50;;;19.40;75.60;;;;;;4857239;29;20078;-76
2023/06/12 06:20:11;;;;;;;1.73;0.80;;;19.40;74.50;;;;;;4855826;29;20087;-76
2023/06/12 06:22:40;;;;;;;2.20;0.90;;;20.80;76.40;;;;;;4847502;29;20052;-76
2023/06/12 06:25:09;;;;;;;4.22;0.90;;;19.70;75.10;;;;;;4861998;29;20056;-76
2023/06/12 06:27:36;;;;;;;2.50;0.65;;;19.80;75.00;;;;;;4841935;29;20051;-76
2023/06/12 06:30:05;;;;;;;1.88;0.60;;;19.80;73.90;;;;;;4831465;29;20099;-76
2023/06/12 06:32:32;;;;;;;2.58;0.70;;;19.90;73.70;;;;;;4852902;29;20242;-76
2023/06/12 06:34:59;;;;;;;2.67;1.30;;;19.90;73.40;;;;;;4859484;29;20047;-76
2023/06/12 06:37:27;;;;;;;4.68;0.77;;;20.00;73.90;;;;;;4856631;29;20106;-77
2023/06/12 06:39:54;;;;;;;1.52;0.60;;;20.00;73.20;;;;;;4857805;29;20140;-76
2023/06/12 06:42:21;;;;;;;2.28;1.15;;;20.10;72.80;;;;;;4839588;29;20218;-76
2023/06/12 06:45:00;;;;;;;1.10;0.55;;;19.90;70.90;;;;;;4856887;29;20068;-76
2023/06/12 06:47:28;;;;;;;2.08;0.70;;;20.00;71.40;;;;;;4845196;29;20052;-75
2023/06/12 06:49:57;;;;;;;3.92;0.90;;;20.20;71.80;;;;;;4834387;29;20058;-76
2023/06/12 06:52:25;;;;;;;3.00;0.80;;;20.40;71.40;;;;;;4849605;29;20059;-75
2023/06/12 06:54:53;;;;;;;2.25;0.60;;;20.40;70.80;;;;;;4865246;29;20064;-76
2023/06/12 06:57:23;;;;;;;1.35;0.40;;;20.30;70.20;;;;;;4845012;29;20052;-76
2023/06/12 06:59:51;;;;;;;1.80;0.60;;;20.50;70.50;;;;;;4838105;29;20048;-76
2023/06/12 07:02:20;;;;;;;2.08;0.77;;;20.50;69.00;;;;;;4835439;29;20059;-76
2023/06/12 07:04:50;;;;;;;2.88;0.80;;;20.60;70.20;;;;;;4832380;29;20701;-76
2023/06/12 07:07:18;;;;;;;3.63;1.25;;;20.70;69.70;;;;;;4859470;29;20800;-76
2023/06/12 07:09:46;;;;;;;3.50;0.90;;;20.60;68.70;;;;;;4860511;29;20063;-75
2023/06/12 07:12:13;;;;;;;5.32;0.55;;;20.70;68.10;;;;;;4859190;29;20717;-76
2023/06/12 07:14:41;;;;;;;1.67;0.57;;;20.50;68.60;;;;;;4865613;29;20123;-76
2023/06/12 07:17:08;;;;;;;2.63;0.50;;;20.80;69.80;;;;;;4850426;29;20057;-76
2023/06/12 07:19:36;;;;;;;2.53;0.65;;;20.90;68.70;;;;;;4847016;29;20056;-76
2023/06/12 07:22:04;;;;;;;1.27;0.43;;;21.00;71.00;;;;;;4840572;29;20184;-76
2023/06/12 07:24:32;;;;;;;1.17;0.40;;;21.10;69.10;;;;;;4825853;29;20084;-76
2023/06/12 07:27:00;;;;;;;1.77;0.50;;;21.00;67.80;;;;;;4858598;29;20531;-76
2023/06/12 07:29:27;;;;;;;1.00;0.50;;;21.20;69.00;;;;;;4856939;29;20440;-76
2023/06/12 07:31:54;;;;;;;2.30;0.50;;;21.20;68.20;;;;;;4849259;29;20050;-76
2023/06/12 07:34:22;;;;;;;2.72;0.95;;;21.10;67.00;;;;;;4835003;29;20048;-75
2023/06/12 07:36:49;;;;;;;1.75;0.70;;;21.10;67.20;;;;;;4845593;29;20079;-76
2023/06/12 07:39:16;;;;;;;1.73;0.60;;;21.20;68.60;;;;;;4849921;29;20773;-75
2023/06/12 07:41:43;;;;;;;2.50;0.70;;;21.20;67.90;;;;;;4852572;29;20045;-76
2023/06/12 07:44:10;;;;;;;1.27;0.57;;;21.20;67.80;;;;;;4854013;29;20060;-76
2023/06/12 07:46:42;;;;;;;1.85;0.63;;;21.10;66.90;;;;;;4856858;29;22517;-76
2023/06/12 07:49:09;;;;;;;3.28;0.75;;;21.00;67.30;;;;;;4855204;29;20093;-76
2023/06/12 07:51:37;;;;;;;2.33;0.82;;;21.20;67.30;;;;;;4837007;29;20060;-75
2023/06/12 07:54:05;;;;;;;3.35;0.77;;;21.30;67.40;;;;;;4862979;29;20059;-76
2023/06/12 07:56:33;;;;;;;1.55;0.73;;;21.40;67.90;;;;;;4848653;29;20063;-76
2023/06/12 07:59:12;;;;;;;1.83;0.65;;;21.40;67.30;;;;;;4856165;29;20052;-75
2023/06/12 08:01:48;;;;;;;1.63;0.52;;;21.50;68.60;;;;;;4854789;29;20060;-75
2023/06/12 08:04:18;;;;;;;2.58;1.02;;;21.40;66.50;;;;;;4863504;29;20097;-76
2023/06/12 08:06:47;;;;;;;4.40;0.68;;;21.20;67.20;;;;;;4867316;29;20055;-76
2023/06/12 08:09:17;;;;;;;2.55;0.52;;;21.10;66.30;;;;;;4862507;29;20060;-75
2023/06/12 08:11:45;;;;;;;1.67;0.63;;;21.30;66.50;;;;;;4862171;29;20093;-76
2023/06/12 08:14:13;;;;;;;1.67;0.45;;;21.50;67.50;;;;;;4860511;29;20060;-76
2023/06/12 08:16:41;;;;;;;1.80;0.63;;;21.30;64.50;;;;;;4837024;29;20599;-76
2023/06/12 08:19:09;;;;;;;2.17;0.80;;;21.40;66.40;;;;;;4834850;29;20052;-75
2023/06/12 08:21:37;;;;;;;1.98;0.50;;;21.00;64.40;;;;;;4860023;29;20507;-76
2023/06/12 08:24:07;;;;;;;1.00;0.40;;;21.00;66.00;;;;;;4851690;29;20050;-76
2023/06/12 08:26:35;;;;;;;3.85;1.33;;;21.20;67.10;;;;;;4860137;29;20824;-75
2023/06/12 08:29:02;;;;;;;2.42;0.75;;;21.20;65.30;;;;;;4853421;29;20048;-75
2023/06/12 08:31:34;;;;;;;2.83;0.63;;;21.40;66.20;;;;;;4860281;29;20063;-76
2023/06/12 08:34:01;;;;;;;1.83;0.70;;;21.50;65.70;;;;;;4852363;29;20052;-75
2023/06/12 08:36:28;;;;;;;1.70;0.60;;;21.60;66.00;;;;;;4831378;29;20051;-76
2023/06/12 08:38:55;;;;;;;4.65;1.13;;;21.50;65.30;;;;;;4856885;29;20217;-75
2023/06/12 08:41:26;;;;;;;1.25;0.70;;;21.30;63.90;;;;;;4833413;29;20067;-75
2023/06/12 08:43:56;;;;;;;1.40;0.52;;;21.50;65.10;;;;;;4859415;29;20625;-76
2023/06/12 08:46:33;;;;;;;1.02;0.40;;;21.70;65.50;;;;;;4844029;29;20512;-76
2023/06/12 08:49:01;;;;;;;2.25;0.50;;;21.80;65.30;;;;;;4860275;29;20040;-76
2023/06/12 08:51:30;;;;;;;1.60;0.40;;;21.60;63.10;;;;;;4845688;29;20151;-77
2023/06/12 08:53:59;;;;;;;1.80;0.50;;;21.50;63.90;;;;;;4867762;29;20724;-76
2023/06/12 08:56:27;;;;;;;1.67;0.75;;;21.70;64.60;;;;;;4859774;29;20172;-76
2023/06/12 08:58:54;;;;;;;2.28;0.90;;;21.80;64.30;;;;;;4868562;29;20056;-76
2023/06/12 09:01:23;;;;;;;1.67;0.57;;;21.80;64.50;;;;;;4859381;29;20067;-76
2023/06/12 09:03:55;;;;;;;2.72;0.70;;;21.70;63.70;;;;;;4852454;29;20052;-76
2023/06/12 09:06:23;;;;;;;3.28;0.43;;;21.90;64.10;;;;;;4851552;29;20135;-77
2023/06/12 09:08:50;;;;;;;1.88;0.55;;;21.80;64.20;;;;;;4859108;29;22336;-76
2023/06/12 09:11:17;;;;;;;2.50;0.63;;;21.90;63.30;;;;;;4860622;29;20060;-76
2023/06/12 09:13:44;;;;;;;1.40;0.50;;;21.80;62.50;;;;;;4850880;29;20056;-76
2023/06/12 09:16:13;;;;;;;1.55;0.50;;;21.90;64.60;;;;;;4851663;29;20088;-76
2023/06/12 09:18:51;;;;;;;1.73;0.50;;;21.80;62.40;;;;;;4846538;29;20056;-76
2023/06/12 09:21:21;;;;;;;2.22;0.52;;;21.70;62.50;;;;;;4838599;29;20143;-76
2023/06/12 09:23:55;;;;;;;1.60;0.47;;;21.90;63.20;;;;;;4858989;29;20049;-76
2023/06/12 09:26:22;;;;;;;2.45;0.50;;;21.80;62.30;;;;;;4859915;29;20055;-76
2023/06/12 09:28:54;;;;;;;1.55;0.43;;;21.80;63.00;;;;;;4847176;29;20052;-76
2023/06/12 09:31:21;;;;;;;2.72;0.70;;;21.90;62.60;;;;;;4859892;29;20670;-76
2023/06/12 09:33:53;;;;;;;2.13;0.57;;;21.90;61.70;;;;;;4861705;29;20183;-76
2023/06/12 09:36:25;;;;;;;0.93;0.50;;;21.80;61.40;;;;;;4863189;29;20060;-76
2023/06/12 09:39:08;;;;;;;2.95;0.40;;;21.70;61.40;;;;;;4862476;29;20543;-76
2023/06/12 09:41:35;;;;;;;2.35;0.50;;;21.60;61.80;;;;;;4849167;29;20162;-76
2023/06/12 09:44:03;;;;;;;2.38;0.70;;;21.50;60.50;;;;;;4865273;29;20519;-76
2023/06/12 09:46:31;;;;;;;3.33;0.82;;;21.60;62.50;;;;;;4844340;29;20048;-76
2023/06/12 09:48:59;;;;;;;3.10;0.80;;;21.70;61.00;;;;;;4844291;29;23009;-76
2023/06/12 09:51:48;;;;;;;0.95;0.40;;;21.70;60.00;;;;;;4850955;29;20040;-75
2023/06/12 09:54:27;;;;;;;2.20;0.40;;;21.80;62.00;;;;;;4860880;29;22750;-76
2023/06/12 09:56:57;;;;;;;4.10;1.02;;;21.90;61.20;;;;;;4863555;29;20583;-76
2023/06/12 09:59:28;;;;;;;2.03;0.57;;;21.70;61.00;;;;;;4855319;29;20540;-76
2023/06/12 10:02:03;;;;;;;0.82;0.40;;;21.80;62.10;;;;;;4841976;29;22486;-76
2023/06/12 10:04:42;;;;;;;1.67;0.30;;;21.90;63.20;;;;;;4875383;29;20404;-75
2023/06/12 10:07:16;;;;;;;0.65;0.38;;;21.80;61.00;;;;;;4854609;29;21188;-75
2023/06/12 10:09:44;;;;;;;3.72;0.70;;;21.70;60.70;;;;;;4858496;29;20186;-75
2023/06/12 10:12:12;;;;;;;1.42;0.52;;;21.80;62.00;;;;;;4872886;29;20064;-75
2023/06/12 10:14:40;;;;;;;1.10;0.50;;;21.80;60.20;;;;;;4849243;29;20057;-76
2023/06/12 10:17:10;;;;;;;0.80;0.20;;;21.70;60.30;;;;;;4844634;29;20492;-76
2023/06/12 10:19:47;;;;;;;1.55;0.40;;;21.80;61.70;;;;;;4856800;29;20060;-76
2023/06/12 10:22:14;;;;;;;2.00;0.50;;;21.90;61.40;;;;;;4861310;29;20045;-78
2023/06/12 10:24:42;;;;;;;1.05;0.30;;;21.90;61.10;;;;;;4835694;29;20825;-76
2023/06/12 10:27:11;;;;;;;1.08;0.50;;;21.90;61.10;;;;;;4844520;29;20497;-76
2023/06/12 10:29:39;;;;;;;0.75;0.30;;;21.90;60.60;;;;;;4855813;29;20057;-75
2023/06/12 10:32:10;;;;;;;1.40;0.40;;;22.00;61.50;;;;;;4832182;29;20076;-76
2023/06/12 10:34:43;;;;;;;1.67;0.40;;;21.90;60.70;;;;;;4863538;29;20516;-76
2023/06/12 10:37:21;;;;;;;;;;;21.90;60.80;;;;;;4850483;29;20052;-75
2023/06/12 10:39:59;;;;;;;3.85;0.30;;;21.90;61.20;;;;;;4861075;29;19931;-77
2023/06/12 10:42:47;;;;;;;0.75;0.40;;;21.90;60.90;;;;;;4864250;29;20505;-76
2023/06/12 10:45:25;;;;;;;1.30;0.40;;;22.00;62.20;;;;;;4842877;29;20071;-75
2023/06/12 10:48:17;;;;;;;1.83;0.43;;;22.10;61.60;;;;;;4838778;29;20052;-75
2023/06/12 10:50:50;;;;;;;1.25;0.40;;;22.00;60.60;;;;;;4856729;29;20071;-76
2023/06/12 10:53:22;;;;;;;1.90;0.30;;;22.00;60.10;;;;;;4835491;29;20209;-75
2023/06/12 10:56:05;;;;;;;2.35;0.30;;;21.90;59.40;;;;;;4840917;29;20063;-76
2023/06/12 10:58:38;;;;;;;1.58;0.40;;;21.90;60.00;;;;;;4844560;29;20087;-76
2023/06/12 11:01:13;;;;;;;2.13;0.50;;;21.80;60.30;;;;;;4858730;29;20055;-75
2023/06/12 11:03:42;;;;;;;2.38;0.50;;;21.90;60.20;;;;;;4846831;29;20264;-75
2023/06/12 11:06:15;;;;;;;2.63;0.50;;;22.00;60.60;;;;;;4841093;29;22421;-76
2023/06/12 11:08:48;;;;;;;2.40;0.43;;;22.00;60.30;;;;;;4854506;29;20049;-76
2023/06/12 11:11:17;;;;;;;1.23;0.33;;;21.90;61.10;;;;;;4836581;29;21161;-76
2023/06/12 11:13:46;;;;;;;4.93;0.60;;;22.00;61.10;;;;;;4851915;29;20170;-76
2023/06/12 11:16:15;;;;;;;4.00;0.30;;;21.90;61.30;;;;;;4853479;29;20464;-76
2023/06/12 11:18:43;;;;;;;2.78;0.40;;;22.00;60.70;;;;;;4856655;29;20210;-77
2023/06/12 11:21:11;;;;;;;4.00;0.68;;;22.20;60.20;;;;;;4845464;29;20059;-76
2023/06/12 11:23:42;;;;;;;1.23;0.50;;;22.00;60.70;;;;;;4850756;29;20842;-76
2023/06/12 11:26:10;;;;;;;1.92;0.60;;;22.10;60.40;;;;;;4848414;29;20451;-77
2023/06/12 11:28:37;;;;;;;1.23;0.40;;;22.10;60.20;;;;;;4875882;29;20777;-77
2023/06/12 11:31:07;;;;;;;1.70;0.43;;;22.00;59.60;;;;;;4875011;29;20059;-76
2023/06/12 11:33:39;;;;;;;2.00;0.30;;;22.20;62.70;;;;;;4859578;29;20056;-76
2023/06/12 11:36:08;;;;;;;1.40;0.30;;;22.10;60.60;;;;;;4852323;29;20400;-76
2023/06/12 11:38:35;;;;;;;1.25;0.43;;;22.20;60.70;;;;;;4847844;29;20488;-76
2023/06/12 11:41:10;;;;;;;1.83;0.32;;;22.30;61.00;;;;;;4857719;29;20073;-76
2023/06/12 11:43:37;;;;;;;1.08;0.40;;;22.30;61.00;;;;;;4863912;29;20051;-77
2023/06/12 11:46:05;;;;;;;1.25;0.40;;;22.10;59.80;;;;;;4833098;29;20044;-76
2023/06/12 11:48:32;;;;;;;1.25;0.40;;;22.10;60.50;;;;;;4849283;29;20048;-77
2023/06/12 11:51:04;;;;;;;2.00;0.50;;;22.20;61.30;;;;;;4848829;29;20087;-76
2023/06/12 11:53:31;;;;;;;1.10;0.47;;;22.30;60.40;;;;;;4867031;29;20040;-76
2023/06/12 11:56:04;;;;;;;2.10;0.40;;;22.20;60.30;;;;;;4864459;29;20162;-77
2023/06/12 11:58:41;;;;;;;1.88;0.40;;;22.10;58.50;;;;;;4854238;29;20047;-76
2023/06/12 12:01:25;;;;;;;2.05;0.50;;;22.20;59.80;;;;;;4865320;29;20246;-76
2023/06/12 12:03:57;;;;;;;1.80;0.40;;;22.20;59.90;;;;;;4836869;29;20052;-75
2023/06/12 12:06:26;;;;;;;1.50;0.60;;;22.20;60.30;;;;;;4866973;29;20720;-76
2023/06/12 12:08:55;;;;;;;1.63;0.85;;;22.30;59.50;;;;;;4863624;29;20055;-77
2023/06/12 12:11:27;;;;;;;3.15;0.40;;;22.30;59.60;;;;;;4860717;29;20064;-76
2023/06/12 12:14:03;;;;;;;1.60;0.50;;;22.30;58.70;;;;;;4845589;29;20052;-76
2023/06/12 12:16:43;;;;;;;1.25;0.47;;;22.30;58.20;;;;;;4871162;29;20048;-76
2023/06/12 12:19:29;;;;;;;2.70;0.60;;;22.30;59.60;;;;;;4826956;29;20056;-76
2023/06/12 12:21:57;;;;;;;2.95;0.45;;;22.30;58.70;;;;;;4856998;29;20059;-76
2023/06/12 12:24:25;;;;;;;3.00;0.60;;;22.20;57.90;;;;;;4863564;29;22302;-76
2023/06/12 12:26:53;;;;;;;2.08;0.52;;;22.20;58.20;;;;;;4871327;29;20044;-76
2023/06/12 12:29:21;;;;;;;1.90;0.50;;;22.20;58.20;;;;;;4846160;29;20526;-76
2023/06/12 12:31:48;;;;;;;0.95;0.40;;;22.30;58.40;;;;;;4835587;29;20060;-77
2023/06/12 12:34:16;;;;;;;2.40;0.45;;;22.30;58.40;;;;;;4862118;29;20528;-77
2023/06/12 12:36:44;;;;;;;1.80;0.40;;;22.30;59.20;;;;;;4851309;29;22437;-77
2023/06/12 12:39:11;;;;;;;1.20;0.60;;;22.40;59.50;;;;;;4840660;29;20057;-77
2023/06/12 12:41:39;;;;;;;0.98;0.40;;;22.30;57.30;;;;;;4875393;29;20048;-76
2023/06/12 12:44:06;;;;;;;2.35;0.50;;;22.40;58.10;;;;;;4863191;29;20052;-76
2023/06/12 12:46:34;;;;;;;1.42;0.50;;;22.30;58.40;;;;;;4848322;29;20263;-76
2023/06/12 12:49:01;;;;;;;0.80;0.40;;;22.30;58.40;;;;;;4870997;29;20180;-76
2023/06/12 12:51:29;;;;;;;0.85;0.35;;;22.40;59.50;;;;;;4862697;29;20051;-77
2023/06/12 12:53:56;;;;;;;1.10;0.40;;;22.40;58.40;;;;;;4861563;29;20052;-76
2023/06/12 12:56:24;;;;;;;3.33;0.68;;;22.50;59.10;;;;;;4847025;29;20166;-76
2023/06/12 12:58:51;;;;;;;2.58;0.50;;;22.60;57.10;;;;;;4853850;29;20828;-76
2023/06/12 13:01:18;;;;;;;5.65;0.77;;;22.60;57.10;;;;;;4863070;29;20051;-76